createdAt,value
2022-10-10T00:02:22.792Z,95653.44
2022-10-10T00:05:24.936Z,95653.94
2022-10-10T00:08:26.804Z,95648.81
2022-10-10T00:11:28.697Z,95650.03
2022-10-10T00:14:32.644Z,95648.91
2022-10-10T00:17:34.630Z,95650.13
2022-10-10T00:20:36.509Z,95645.91
2022-10-10T00:23:38.685Z,95649.03
2022-10-10T00:26:40.619Z,95647.41
2022-10-10T00:29:43.883Z,95645.03
2022-10-10T00:32:45.791Z,95645.44
2022-10-10T00:35:48.443Z,95649.72
2022-10-10T00:38:50.336Z,95644.19
2022-10-10T00:41:52.171Z,95644.56
2022-10-10T00:45:32.414Z,95644.50
2022-10-10T00:48:39.287Z,95639.06
2022-10-10T00:51:42.432Z,95649.91
2022-10-10T00:54:44.345Z,95638.41
2022-10-10T00:57:46.575Z,95648.78
2022-10-10T01:00:48.749Z,95643.38
2022-10-10T01:03:54.533Z,95634.19
2022-10-10T01:06:57.226Z,95644.25
2022-10-10T01:10:03.012Z,95635.75
2022-10-10T01:13:15.023Z,95631.50
2022-10-10T01:16:23.707Z,95628.84
2022-10-10T01:19:56.243Z,95620.97
2022-10-10T01:23:18.166Z,95628.00
2022-10-10T01:26:50.464Z,95617.53
2022-10-10T01:29:57.146Z,95615.25
2022-10-10T01:33:06.838Z,95619.13
2022-10-10T01:36:17.500Z,95616.81
2022-10-10T01:39:27.495Z,95626.44
2022-10-10T01:42:37.262Z,95611.34
2022-10-10T01:45:46.043Z,95618.63
2022-10-10T01:48:51.372Z,95615.94
2022-10-10T01:52:04.104Z,95612.06
2022-10-10T01:55:32.709Z,95605.16
2022-10-10T01:58:46.872Z,95612.53
2022-10-10T02:01:55.907Z,95612.94
2022-10-10T02:05:03.957Z,95616.00
2022-10-10T02:08:09.959Z,95607.53
2022-10-10T02:11:12.549Z,95602.16
2022-10-10T02:14:18.948Z,95606.75
2022-10-10T02:17:26.101Z,95613.69
2022-10-10T02:20:30.455Z,95604.03
2022-10-10T02:23:33.636Z,95603.28
2022-10-10T02:26:37.302Z,95600.63
2022-10-10T02:29:43.598Z,95608.34
2022-10-10T02:32:49.587Z,95606.03
2022-10-10T02:35:53.464Z,95590.22
2022-10-10T02:38:57.242Z,95597.59
2022-10-10T02:41:59.088Z,95596.00
2022-10-10T02:45:01.940Z,95594.88
2022-10-10T02:48:05.347Z,95586.44
2022-10-10T02:51:09.337Z,95589.88
2022-10-10T02:54:11.216Z,95590.31
2022-10-10T02:57:13.079Z,95594.16
2022-10-10T03:00:16.052Z,95592.16
2022-10-10T03:03:19.508Z,95598.34
2022-10-10T03:06:21.442Z,95598.78
2022-10-10T03:09:23.348Z,95598.41
2022-10-10T03:12:25.384Z,95598.41
2022-10-10T03:15:27.285Z,95589.13
2022-10-10T03:18:30.664Z,95596.47
2022-10-10T03:21:32.534Z,95607.22
2022-10-10T03:24:34.449Z,95610.34
2022-10-10T03:27:36.334Z,95613.03
2022-10-10T03:30:38.959Z,95606.06
2022-10-10T03:33:42.279Z,95606.72
2022-10-10T03:36:44.177Z,95610.56
2022-10-10T03:39:46.091Z,95609.88
2022-10-10T03:42:48.187Z,95605.56
2022-10-10T03:45:50.669Z,95601.25
2022-10-10T03:48:54.259Z,95599.31
2022-10-10T03:51:56.164Z,95596.97
2022-10-10T03:54:58.071Z,95602.72
2022-10-10T03:57:59.978Z,95605.09
2022-10-10T04:01:03.882Z,95606.69
2022-10-10T04:04:07.218Z,95605.91
2022-10-10T04:07:10.357Z,95605.91
2022-10-10T04:10:12.298Z,95605.81
2022-10-10T04:13:14.165Z,95609.66
2022-10-10T04:16:16.018Z,95599.66
2022-10-10T04:19:19.307Z,95606.13
2022-10-10T04:22:21.254Z,95601.41
2022-10-10T04:25:23.180Z,95602.59
2022-10-10T04:28:25.098Z,95597.19
2022-10-10T04:31:27.093Z,95601.00
2022-10-10T04:34:30.498Z,95599.84
2022-10-10T04:37:32.414Z,95609.00
2022-10-10T04:40:36.194Z,95597.81
2022-10-10T04:43:38.105Z,95606.13
2022-10-10T04:46:39.990Z,95602.66
2022-10-10T04:49:43.533Z,95601.56
2022-10-10T04:52:45.453Z,95599.25
2022-10-10T04:55:47.506Z,95595.03
2022-10-10T04:58:49.406Z,95597.91
2022-10-10T05:01:51.416Z,95600.56
2022-10-10T05:04:54.714Z,95608.03
2022-10-10T05:07:56.765Z,95618.13
2022-10-10T05:10:58.747Z,95616.56
2022-10-10T05:14:00.700Z,95618.16
2022-10-10T05:17:02.675Z,95621.25
2022-10-10T05:20:06.945Z,95629.00
2022-10-10T05:23:08.848Z,95616.28
2022-10-10T05:26:11.695Z,95624.69
2022-10-10T05:29:13.557Z,95613.16
2022-10-10T05:32:15.489Z,95618.25
2022-10-10T05:35:18.926Z,95619.94
2022-10-10T05:38:22.551Z,95617.56
2022-10-10T05:41:24.433Z,95621.91
2022-10-10T05:44:26.550Z,95626.31
2022-10-10T05:47:28.538Z,95619.72
2022-10-10T05:50:35.290Z,95617.88
2022-10-10T05:53:37.193Z,95622.16
2022-10-10T05:56:39.094Z,95630.28
2022-10-10T05:59:40.974Z,95642.72
2022-10-10T06:02:42.971Z,95639.00
2022-10-10T06:05:47.492Z,95632.56
2022-10-10T06:08:49.457Z,95643.75
2022-10-10T06:11:51.352Z,95655.25
2022-10-10T06:14:53.314Z,95651.84
2022-10-10T06:17:55.241Z,95654.25
2022-10-10T06:21:01.615Z,95649.28
2022-10-10T06:24:03.732Z,95660.84
2022-10-10T06:27:05.639Z,95658.94
2022-10-10T06:30:08.872Z,95659.03
2022-10-10T06:33:12.021Z,95664.13
2022-10-10T06:36:16.667Z,95667.34
2022-10-10T06:39:19.049Z,95664.66
2022-10-10T06:42:21.038Z,95668.09
2022-10-10T06:45:22.927Z,95675.47
2022-10-10T06:48:24.977Z,95665.13
2022-10-10T06:51:28.277Z,95671.66
2022-10-10T06:54:30.262Z,95677.78
2022-10-10T06:57:32.119Z,95681.75
2022-10-10T07:00:34.043Z,95679.47
2022-10-10T07:03:36.198Z,95677.91
2022-10-10T07:06:39.902Z,95681.81
2022-10-10T07:09:41.790Z,95682.66
2022-10-10T07:12:44.984Z,95683.84
2022-10-10T07:15:47.350Z,95674.47
2022-10-10T07:18:49.255Z,95682.66
2022-10-10T07:21:52.498Z,95684.13
2022-10-10T07:24:54.518Z,95690.38
2022-10-10T07:27:56.513Z,95687.34
2022-10-10T07:31:00.500Z,95687.75
2022-10-10T07:34:02.657Z,95694.41
2022-10-10T07:37:05.965Z,95693.75
2022-10-10T07:40:09.495Z,95705.81
2022-10-10T07:43:11.459Z,95697.47
2022-10-10T07:46:16.472Z,95708.63
2022-10-10T07:49:18.413Z,95701.78
2022-10-10T07:52:21.792Z,95704.28
2022-10-10T07:55:23.858Z,95702.75
2022-10-10T07:58:25.931Z,95705.88
2022-10-10T08:01:28.013Z,95710.56
2022-10-10T08:04:30.164Z,95706.34
2022-10-10T08:07:33.470Z,95702.91
2022-10-10T08:10:35.443Z,95706.09
2022-10-10T08:13:38.279Z,95713.13
2022-10-10T08:16:40.184Z,95714.13
2022-10-10T08:19:42.079Z,95718.75
2022-10-10T08:22:45.414Z,95708.75
2022-10-10T08:25:47.348Z,95711.09
2022-10-10T08:28:49.466Z,95708.03
2022-10-10T08:31:51.410Z,95712.31
2022-10-10T08:34:53.404Z,95711.59
2022-10-10T08:37:56.672Z,95714.72
2022-10-10T08:41:00.709Z,95715.56
2022-10-10T08:44:06.749Z,95721.75
2022-10-10T08:47:15.208Z,95715.19
2022-10-10T08:50:21.713Z,95710.56
2022-10-10T08:53:31.815Z,95709.03
2022-10-10T08:56:35.045Z,95708.69
2022-10-10T08:59:39.930Z,95706.78
2022-10-10T09:02:55.792Z,95713.38
2022-10-10T09:06:16.997Z,95704.88
2022-10-10T09:09:29.914Z,95710.66
2022-10-10T09:12:41.953Z,95716.88
2022-10-10T09:15:52.425Z,95723.06
2022-10-10T09:19:03.647Z,95712.59
2022-10-10T09:22:13.386Z,95709.91
2022-10-10T09:25:21.564Z,95714.91
2022-10-10T09:28:36.036Z,95712.19
2022-10-10T09:31:42.392Z,95707.13
2022-10-10T09:34:48.375Z,95713.66
2022-10-10T09:37:53.645Z,95713.56
2022-10-10T09:41:02.350Z,95712.34
2022-10-10T09:44:06.852Z,95720.81
2022-10-10T09:47:12.316Z,95706.78
2022-10-10T09:50:15.580Z,95703.19
2022-10-10T09:53:17.537Z,95705.50
2022-10-10T09:56:23.846Z,95703.91
2022-10-10T09:59:40.855Z,95704.22
2022-10-10T10:02:42.811Z,95702.09
2022-10-10T10:05:53.038Z,95698.88
2022-10-10T10:08:54.972Z,95711.03
2022-10-10T10:11:59.013Z,95711.00
2022-10-10T10:15:04.907Z,95708.25
2022-10-10T10:18:10.706Z,95708.94
2022-10-10T10:21:22.534Z,95713.44
2022-10-10T10:24:30.668Z,95713.81
2022-10-10T10:27:33.936Z,95708.66
2022-10-10T10:30:35.998Z,95708.09
2022-10-10T10:33:46.659Z,95706.75
2022-10-10T10:36:57.292Z,95696.22
2022-10-10T10:40:18.264Z,95698.88
2022-10-10T10:43:48.513Z,95699.50
2022-10-10T10:47:04.697Z,95705.66
2022-10-10T10:50:26.628Z,95700.41
2022-10-10T10:53:39.394Z,95705.97
2022-10-10T10:56:50.675Z,95695.59
2022-10-10T11:00:26.521Z,95694.81
2022-10-10T11:05:15.742Z,95696.34
2022-10-10T11:07:19.373Z,95683.97
2022-10-10T11:10:30.576Z,95688.09
2022-10-10T11:13:39.445Z,95685.72
2022-10-10T11:16:49.459Z,95667.34
2022-10-10T11:19:58.541Z,95674.88
2022-10-10T11:23:08.854Z,95678.03
2022-10-10T11:26:18.834Z,95667.53
2022-10-10T11:29:25.613Z,95676.78
2022-10-10T11:32:37.117Z,95675.84
2022-10-10T11:35:44.813Z,95668.03
2022-10-10T11:38:53.104Z,95670.84
2022-10-10T11:41:59.216Z,95668.50
2022-10-10T11:45:06.331Z,95668.31
2022-10-10T11:48:21.243Z,95673.78
2022-10-10T11:51:35.685Z,95671.69
2022-10-10T11:54:44.415Z,95669.78
2022-10-10T11:57:52.723Z,95659.13
2022-10-10T12:00:58.092Z,95660.34
2022-10-10T12:04:01.426Z,95665.19
2022-10-10T12:07:06.614Z,95655.28
2022-10-10T12:10:18.726Z,95658.44
2022-10-10T12:13:28.460Z,95652.13
2022-10-10T12:16:34.223Z,95655.47
2022-10-10T12:19:37.655Z,95656.31
2022-10-10T12:22:39.722Z,95659.31
2022-10-10T12:25:43.668Z,95654.09
2022-10-10T12:29:01.019Z,95655.28
2022-10-10T12:32:23.715Z,95655.94
2022-10-10T12:35:41.470Z,95656.13
2022-10-10T12:39:24.618Z,95650.97
2022-10-10T12:42:28.429Z,95649.16
2022-10-10T12:46:06.540Z,95650.50
2022-10-10T12:49:19.859Z,95652.41
2022-10-10T12:52:25.841Z,95644.13
2022-10-10T12:55:30.715Z,95653.06
2022-10-10T12:58:35.651Z,95645.81
2022-10-10T13:01:40.824Z,95652.78
2022-10-10T13:04:45.506Z,95648.97
2022-10-10T13:07:50.301Z,95647.41
2022-10-10T13:11:03.988Z,95654.16
2022-10-10T13:14:08.641Z,95653.16
2022-10-10T13:17:26.048Z,95651.53
2022-10-10T13:20:31.027Z,95654.53
2022-10-10T13:23:35.873Z,95654.84
2022-10-10T13:26:39.929Z,95653.81
2022-10-10T13:29:42.007Z,95658.34
2022-10-10T13:32:44.131Z,95646.69
2022-10-10T13:35:48.531Z,95660.25
2022-10-10T13:38:52.024Z,95655.44
2022-10-10T13:41:54.857Z,95648.69
2022-10-10T13:44:57.457Z,95652.56
2022-10-10T13:48:27.547Z,95656.34
2022-10-10T13:51:43.202Z,95648.69
2022-10-10T13:54:48.863Z,95655.16
2022-10-10T13:57:51.543Z,95659.22
2022-10-10T14:00:58.498Z,95654.50
2022-10-10T14:04:21.866Z,95649.81
2022-10-10T14:07:25.960Z,95655.59
2022-10-10T14:10:30.874Z,95645.88
2022-10-10T14:13:34.904Z,95650.13
2022-10-10T14:16:36.857Z,95648.88
2022-10-10T14:19:39.278Z,95658.38
2022-10-10T14:22:41.422Z,95652.47
2022-10-10T14:25:48.145Z,95660.88
2022-10-10T14:28:50.289Z,95660.66
2022-10-10T14:31:52.165Z,95665.06
2022-10-10T14:34:54.075Z,95664.63
2022-10-10T14:37:56.016Z,95674.84
2022-10-10T14:41:00.242Z,95676.81
2022-10-10T14:44:02.501Z,95674.91
2022-10-10T14:47:04.451Z,95674.75
2022-10-10T14:50:15.580Z,95667.28
2022-10-10T14:53:17.478Z,95661.97
2022-10-10T14:56:20.727Z,95664.84
2022-10-10T14:59:46.109Z,95664.81
2022-10-10T15:02:45.778Z,95664.47
2022-10-10T15:05:48.050Z,95671.59
2022-10-10T15:08:50.244Z,95668.53
2022-10-10T15:11:53.469Z,95681.97
2022-10-10T15:14:55.430Z,95678.63
2022-10-10T15:17:58.192Z,95681.72
2022-10-10T15:21:00.293Z,95681.25
2022-10-10T15:24:02.602Z,95676.16
2022-10-10T15:27:05.957Z,95682.63
2022-10-10T15:30:09.061Z,95685.75
2022-10-10T15:33:11.042Z,95684.31
2022-10-10T15:36:16.960Z,95681.59
2022-10-10T15:39:20.975Z,95682.72
2022-10-10T15:42:24.295Z,95677.31
2022-10-10T15:48:48.205Z,95680.97
2022-10-10T15:51:50.074Z,95684.06
2022-10-10T15:54:52.610Z,95687.94
2022-10-10T15:57:56.058Z,95695.97
2022-10-10T16:00:58.033Z,95697.91
2022-10-10T16:04:02.319Z,95705.44
2022-10-10T16:07:24.525Z,95709.03
2022-10-10T16:10:26.825Z,95702.72
2022-10-10T16:13:30.099Z,95717.13
2022-10-10T16:16:32.044Z,95718.16
2022-10-10T16:19:33.942Z,95723.03
2022-10-10T16:22:35.849Z,95716.44
2022-10-10T16:25:37.727Z,95711.03
2022-10-10T16:28:41.250Z,95717.03
2022-10-10T16:31:43.140Z,95713.59
2022-10-10T16:34:45.805Z,95716.41
2022-10-10T16:37:47.787Z,95709.63
2022-10-10T16:40:49.731Z,95710.47
2022-10-10T16:43:53.282Z,95719.34
2022-10-10T16:46:55.171Z,95719.06
2022-10-10T16:49:57.163Z,95716.50
2022-10-10T16:52:59.028Z,95729.50
2022-10-10T16:56:02.244Z,95735.22
2022-10-10T16:59:05.550Z,95729.94
2022-10-10T17:02:07.447Z,95732.72
2022-10-10T17:05:09.882Z,95738.22
2022-10-10T17:08:11.978Z,95744.38
2022-10-10T17:11:14.502Z,95745.97
2022-10-10T17:14:17.837Z,95748.97
2022-10-10T17:17:19.648Z,95750.94
2022-10-10T17:20:21.782Z,95757.06
2022-10-10T17:23:23.626Z,95755.72
2022-10-10T17:26:25.776Z,95762.66
2022-10-10T17:29:29.045Z,95764.94
2022-10-10T17:32:31.090Z,95760.25
2022-10-10T17:35:32.922Z,95759.25
2022-10-10T17:38:40.096Z,95755.03
2022-10-10T17:41:42.469Z,95756.81
2022-10-10T17:44:51.411Z,95760.50
2022-10-10T17:47:54.510Z,95752.25
2022-10-10T17:50:59.548Z,95756.19
2022-10-10T17:54:02.662Z,95757.13
2022-10-10T17:57:04.604Z,95755.88
2022-10-10T18:00:09.816Z,95753.06
2022-10-10T18:03:12.639Z,95760.50
2022-10-10T18:06:17.452Z,95758.63
2022-10-10T18:09:19.973Z,95755.84
2022-10-10T18:12:22.077Z,95758.38
2022-10-10T18:15:25.419Z,95766.69
2022-10-10T18:18:27.272Z,95764.06
2022-10-10T18:21:29.641Z,95770.31
2022-10-10T18:24:31.908Z,95766.78
2022-10-10T18:27:34.142Z,95763.31
2022-10-10T18:30:40.350Z,95764.88
2022-10-10T18:33:43.295Z,95771.88
2022-10-10T18:36:45.519Z,95771.53
2022-10-10T18:39:47.494Z,95772.97
2022-10-10T18:42:49.479Z,95768.53
2022-10-10T18:45:52.917Z,95773.19
2022-10-10T18:48:55.115Z,95777.56
2022-10-10T18:51:57.038Z,95783.38
2022-10-10T18:54:58.964Z,95780.06
2022-10-10T18:58:00.866Z,95785.53
2022-10-10T19:01:06.043Z,95784.81
2022-10-10T19:04:10.453Z,95786.72
2022-10-10T19:07:12.391Z,95780.88
2022-10-10T19:10:14.253Z,95775.81
2022-10-10T19:13:17.369Z,95781.75
2022-10-10T19:16:21.729Z,95782.28
2022-10-10T19:19:23.644Z,95787.72
2022-10-10T19:22:25.836Z,95789.72
2022-10-10T19:25:28.006Z,95786.59
2022-10-10T19:28:30.288Z,95784.66
2022-10-10T19:31:34.101Z,95786.88
2022-10-10T19:34:36.299Z,95788.50
2022-10-10T19:37:38.250Z,95798.25
2022-10-10T19:40:43.853Z,95797.00
2022-10-10T19:43:49.590Z,95792.31
2022-10-10T19:46:53.672Z,95798.53
2022-10-10T19:49:55.666Z,95793.84
2022-10-10T19:52:59.275Z,95797.63
2022-10-10T19:56:05.551Z,95810.75
2022-10-10T19:59:07.963Z,95807.69
2022-10-10T20:02:11.773Z,95804.19
2022-10-10T20:05:13.921Z,95808.88
2022-10-10T20:08:15.934Z,95810.88
2022-10-10T20:11:18.983Z,95816.81
2022-10-10T20:14:20.924Z,95805.63
2022-10-10T20:17:24.399Z,95810.72
2022-10-10T20:20:26.315Z,95814.22
2022-10-10T20:23:28.317Z,95824.56
2022-10-10T20:26:30.201Z,95817.91
2022-10-10T20:29:32.473Z,95818.03
2022-10-10T20:32:35.732Z,95822.31
2022-10-10T20:35:37.817Z,95823.13
2022-10-10T20:38:39.757Z,95828.91
2022-10-10T20:41:42.460Z,95831.53
2022-10-10T20:44:44.629Z,95834.59
2022-10-10T20:47:47.947Z,95835.78
2022-10-10T20:50:49.864Z,95840.53
2022-10-10T20:53:56.772Z,95836.66
2022-10-10T20:56:59.179Z,95840.47
2022-10-10T21:00:01.043Z,95852.81
2022-10-10T21:03:04.472Z,95846.59
2022-10-10T21:06:09.152Z,95837.22
2022-10-10T21:09:13.419Z,95845.88
2022-10-10T21:12:15.789Z,95848.22
2022-10-10T21:15:18.073Z,95846.59
2022-10-10T21:18:21.475Z,95851.25
2022-10-10T21:21:23.822Z,95845.75
2022-10-10T21:24:25.704Z,95851.97
2022-10-10T21:27:27.580Z,95848.03
2022-10-10T21:30:29.793Z,95845.28
2022-10-10T21:33:34.287Z,95842.94
2022-10-10T21:36:37.082Z,95844.25
2022-10-10T21:39:39.071Z,95841.97
2022-10-10T21:42:41.256Z,95845.84
2022-10-10T21:45:43.819Z,95845.00
2022-10-10T21:48:47.150Z,95844.63
2022-10-10T21:51:49.067Z,95851.19
2022-10-10T21:54:51.079Z,95852.72
2022-10-10T21:57:53.839Z,95848.81
2022-10-10T22:00:55.825Z,95843.13
2022-10-10T22:04:01.418Z,95844.78
2022-10-10T22:07:03.339Z,95846.72
2022-10-10T22:10:11.847Z,95852.97
2022-10-10T22:13:13.737Z,95849.53
2022-10-10T22:16:15.879Z,95850.28
2022-10-10T22:19:19.540Z,95851.78
2022-10-10T22:22:21.552Z,95850.94
2022-10-10T22:25:23.629Z,95853.63
2022-10-10T22:28:26.948Z,95853.97
2022-10-10T22:31:29.170Z,95859.41
2022-10-10T22:34:32.483Z,95862.88
2022-10-10T22:37:34.385Z,95861.75
2022-10-10T22:40:36.284Z,95862.50
2022-10-10T22:43:38.215Z,95863.25
2022-10-10T22:46:40.446Z,95866.44
2022-10-10T22:49:43.845Z,95872.31
2022-10-10T22:52:46.098Z,95872.38
2022-10-10T22:55:47.985Z,95861.16
2022-10-10T22:58:50.836Z,95853.06
2022-10-10T23:01:53.301Z,95856.50
2022-10-10T23:04:56.548Z,95854.59
2022-10-10T23:07:58.508Z,95854.59
2022-10-10T23:11:00.777Z,95854.97
2022-10-10T23:14:02.758Z,95860.34
2022-10-10T23:17:05.262Z,95854.88
2022-10-10T23:20:09.929Z,95864.16
2022-10-10T23:23:11.787Z,95865.31
2022-10-10T23:26:14.127Z,95867.22
2022-10-10T23:29:16.090Z,95868.00
2022-10-10T23:32:18.066Z,95880.78
2022-10-10T23:35:21.329Z,95883.50
2022-10-10T23:38:23.260Z,95892.44
2022-10-10T23:41:25.267Z,95898.66
2022-10-10T23:44:27.469Z,95894.41
2022-10-10T23:47:29.445Z,95892.56
2022-10-10T23:50:32.789Z,95894.16
2022-10-10T23:53:35.184Z,95901.47
2022-10-10T23:56:37.075Z,95908.06
2022-10-10T23:59:38.980Z,95909.59
